createdAt,value
2018-08-31T00:00:32.913Z,1018.11
2018-08-31T00:01:32.936Z,1018.11
2018-08-31T00:02:32.971Z,1018.12
2018-08-31T00:03:32.989Z,1018.16
2018-08-31T00:04:33.021Z,1018.09
2018-08-31T00:05:33.047Z,1018.14
2018-08-31T00:06:33.073Z,1018.12
2018-08-31T00:07:33.101Z,1018.12
2018-08-31T00:08:33.130Z,1018.10
2018-08-31T00:09:33.159Z,1018.12
2018-08-31T00:10:33.194Z,1018.16
2018-08-31T00:11:33.217Z,1018.09
2018-08-31T00:12:33.242Z,1018.11
2018-08-31T00:13:33.274Z,1018.07
2018-08-31T00:14:33.302Z,1018.11
2018-08-31T00:15:33.328Z,1018.07
2018-08-31T00:16:33.354Z,1018.07
2018-08-31T00:17:33.383Z,1018.08
2018-08-31T00:18:33.413Z,1018.07
2018-08-31T00:19:33.444Z,1018.05
2018-08-31T00:20:33.468Z,1018.06
2018-08-31T00:21:33.494Z,1018.05
2018-08-31T00:22:33.525Z,1018.02
2018-08-31T00:23:33.552Z,1018.03
2018-08-31T00:24:33.581Z,1018.03
2018-08-31T00:25:33.610Z,1018.01
2018-08-31T00:26:33.637Z,1018.00
2018-08-31T00:27:33.656Z,1017.99
2018-08-31T00:28:33.693Z,1017.99
2018-08-31T00:29:33.723Z,1017.99
2018-08-31T00:30:33.755Z,1017.96
2018-08-31T00:31:33.776Z,1017.99
2018-08-31T00:32:33.804Z,1017.96
2018-08-31T00:33:33.832Z,1017.97
2018-08-31T00:34:33.860Z,1017.99
2018-08-31T00:35:33.890Z,1017.99
2018-08-31T00:36:33.918Z,1017.98
2018-08-31T00:37:33.938Z,1017.98
2018-08-31T00:38:33.978Z,1017.94
2018-08-31T00:39:34.002Z,1017.92
2018-08-31T00:40:34.034Z,1017.87
2018-08-31T00:41:34.056Z,1017.87
2018-08-31T00:42:34.123Z,1017.86
2018-08-31T00:43:34.117Z,1017.88
2018-08-31T00:44:34.143Z,1017.87
2018-08-31T00:45:34.172Z,1017.86
2018-08-31T00:46:34.197Z,1017.86
2018-08-31T00:47:34.226Z,1017.88
2018-08-31T00:48:34.256Z,1017.89
2018-08-31T00:49:34.288Z,1017.93
2018-08-31T00:50:34.313Z,1017.93
2018-08-31T00:51:34.338Z,1017.88
2018-08-31T00:52:34.368Z,1017.91
2018-08-31T00:53:34.396Z,1017.91
2018-08-31T00:54:34.422Z,1017.90
2018-08-31T00:55:34.450Z,1017.89
2018-08-31T00:56:34.480Z,1017.87
2018-08-31T00:57:34.512Z,1017.88
2018-08-31T00:58:34.534Z,1017.87
2018-08-31T00:59:34.563Z,1017.84
2018-08-31T01:00:34.589Z,1017.80
2018-08-31T01:01:34.618Z,1017.80
2018-08-31T01:02:34.647Z,1017.81
2018-08-31T01:03:34.674Z,1017.81
2018-08-31T01:04:34.697Z,1017.80
2018-08-31T01:05:34.727Z,1017.85
2018-08-31T01:06:34.761Z,1017.86
2018-08-31T01:07:34.786Z,1017.83
2018-08-31T01:08:34.816Z,1017.82
2018-08-31T01:09:34.838Z,1017.85
2018-08-31T01:10:34.867Z,1017.82
2018-08-31T01:11:34.896Z,1017.76
2018-08-31T01:12:34.932Z,1017.75
2018-08-31T01:13:34.958Z,1017.73
2018-08-31T01:14:34.999Z,1017.75
2018-08-31T01:15:35.008Z,1017.73
2018-08-31T01:16:35.030Z,1017.74
2018-08-31T01:17:35.062Z,1017.73
2018-08-31T01:18:35.094Z,1017.78
2018-08-31T01:19:35.121Z,1017.74
2018-08-31T01:20:35.148Z,1017.76
2018-08-31T01:21:35.173Z,1017.77
2018-08-31T01:22:35.212Z,1017.73
2018-08-31T01:23:35.235Z,1017.75
2018-08-31T01:24:35.262Z,1017.71
2018-08-31T01:25:35.285Z,1017.73
2018-08-31T01:26:35.319Z,1017.72
2018-08-31T01:27:35.348Z,1017.70
2018-08-31T01:28:35.416Z,1017.68
2018-08-31T01:29:35.402Z,1017.68
2018-08-31T01:30:35.429Z,1017.71
2018-08-31T01:31:35.460Z,1017.69
2018-08-31T01:32:35.486Z,1017.71
2018-08-31T01:33:35.516Z,1017.74
2018-08-31T01:34:35.544Z,1017.70
2018-08-31T01:35:35.569Z,1017.77
2018-08-31T01:36:35.598Z,1017.76
2018-08-31T01:37:35.624Z,1017.80
2018-08-31T01:38:35.649Z,1017.82
2018-08-31T01:39:35.678Z,1017.76
2018-08-31T01:40:35.707Z,1017.80
2018-08-31T01:41:35.738Z,1017.80
2018-08-31T01:42:35.764Z,1017.82
2018-08-31T01:43:35.789Z,1017.82
2018-08-31T01:44:35.819Z,1017.81
2018-08-31T01:45:35.847Z,1017.77
2018-08-31T01:46:35.872Z,1017.81
2018-08-31T01:47:35.904Z,1017.82
2018-08-31T01:48:35.933Z,1017.79
2018-08-31T01:49:35.958Z,1017.80
2018-08-31T01:50:35.984Z,1017.84
2018-08-31T01:51:36.017Z,1017.85
2018-08-31T01:52:36.087Z,1017.84
2018-08-31T01:53:36.073Z,1017.86
2018-08-31T01:54:36.095Z,1017.89
2018-08-31T01:55:36.123Z,1017.86
2018-08-31T01:56:36.152Z,1017.87
2018-08-31T01:57:36.179Z,1017.88
2018-08-31T01:58:36.207Z,1017.84
2018-08-31T01:59:36.227Z,1017.89
2018-08-31T02:00:36.269Z,1017.89
2018-08-31T02:01:36.293Z,1017.88
2018-08-31T02:02:36.319Z,1017.87
2018-08-31T02:03:36.348Z,1017.84
2018-08-31T02:04:36.381Z,1017.82
2018-08-31T02:05:36.405Z,1017.85
2018-08-31T02:06:36.424Z,1017.81
2018-08-31T02:07:36.456Z,1017.79
2018-08-31T02:08:36.486Z,1017.78
2018-08-31T02:09:36.515Z,1017.78
2018-08-31T02:10:36.540Z,1017.80
2018-08-31T02:11:36.574Z,1017.80
2018-08-31T02:12:36.597Z,1017.79
2018-08-31T02:13:36.626Z,1017.84
2018-08-31T02:14:36.649Z,1017.83
2018-08-31T02:15:36.685Z,1017.83
2018-08-31T02:16:36.708Z,1017.83
2018-08-31T02:17:36.755Z,1017.85
2018-08-31T02:18:36.765Z,1017.84
2018-08-31T02:19:36.794Z,1017.89
2018-08-31T02:20:36.819Z,1017.89
2018-08-31T02:21:36.848Z,1017.89
2018-08-31T02:22:36.871Z,1017.88
2018-08-31T02:23:36.903Z,1017.88
2018-08-31T02:24:36.932Z,1017.86
2018-08-31T02:25:36.964Z,1017.87
2018-08-31T02:26:36.986Z,1017.84
2018-08-31T02:27:37.016Z,1017.83
2018-08-31T02:28:37.038Z,1017.83
2018-08-31T02:29:37.067Z,1017.86
2018-08-31T02:30:37.095Z,1017.84
2018-08-31T02:31:37.123Z,1017.83
2018-08-31T02:32:37.152Z,1017.84
2018-08-31T02:33:37.184Z,1017.86
2018-08-31T02:34:37.206Z,1017.84
2018-08-31T02:35:37.242Z,1017.87
2018-08-31T02:36:37.265Z,1017.90
2018-08-31T02:37:37.294Z,1017.87
2018-08-31T02:38:37.319Z,1017.89
2018-08-31T02:39:37.345Z,1017.88
2018-08-31T02:40:37.380Z,1017.85
2018-08-31T02:41:37.406Z,1017.81
2018-08-31T02:42:37.432Z,1017.81
2018-08-31T02:43:37.459Z,1017.80
2018-08-31T02:44:37.485Z,1017.80
2018-08-31T02:45:37.514Z,1017.78
2018-08-31T02:46:37.543Z,1017.79
2018-08-31T02:47:37.569Z,1017.77
2018-08-31T02:48:37.626Z,1017.76
2018-08-31T02:49:37.626Z,1017.76
2018-08-31T02:50:37.652Z,1017.80
2018-08-31T02:51:37.682Z,1017.76
2018-08-31T02:52:37.711Z,1017.73
2018-08-31T02:53:37.740Z,1017.75
2018-08-31T02:54:37.768Z,1017.74
2018-08-31T02:55:37.795Z,1017.74
2018-08-31T02:56:37.820Z,1017.75
2018-08-31T02:57:37.852Z,1017.75
2018-08-31T02:58:37.874Z,1017.70
2018-08-31T02:59:37.906Z,1017.73
2018-08-31T03:00:37.932Z,1017.77
2018-08-31T03:01:37.960Z,1017.72
2018-08-31T03:02:37.985Z,1017.68
2018-08-31T03:03:38.015Z,1017.69
2018-08-31T03:04:38.044Z,1017.68
2018-08-31T03:05:38.073Z,1017.72
2018-08-31T03:06:38.098Z,1017.72
2018-08-31T03:07:38.129Z,1017.74
2018-08-31T03:08:38.156Z,1017.75
2018-08-31T03:09:38.187Z,1017.73
2018-08-31T03:10:38.210Z,1017.75
2018-08-31T03:11:38.311Z,1017.77
2018-08-31T03:12:38.267Z,1017.73
2018-08-31T03:13:38.297Z,1017.71
2018-08-31T03:14:38.325Z,1017.73
2018-08-31T03:15:38.344Z,1017.73
2018-08-31T03:16:38.378Z,1017.72
2018-08-31T03:17:38.407Z,1017.72
2018-08-31T03:18:38.433Z,1017.69
2018-08-31T03:19:38.465Z,1017.71
2018-08-31T03:20:38.492Z,1017.71
2018-08-31T03:21:38.524Z,1017.70
2018-08-31T03:22:38.549Z,1017.68
2018-08-31T03:23:38.577Z,1017.67
2018-08-31T03:24:38.604Z,1017.65
2018-08-31T03:25:38.630Z,1017.64
2018-08-31T03:26:38.652Z,1017.66
2018-08-31T03:27:38.700Z,1017.65
2018-08-31T03:28:38.720Z,1017.71
2018-08-31T03:29:38.756Z,1017.69
2018-08-31T03:30:38.770Z,1017.72
2018-08-31T03:31:38.809Z,1017.70
2018-08-31T03:32:38.828Z,1017.74
2018-08-31T03:33:38.857Z,1017.70
2018-08-31T03:34:38.886Z,1017.74
2018-08-31T03:35:38.915Z,1017.73
2018-08-31T03:36:38.947Z,1017.73
2018-08-31T03:37:38.966Z,1017.74
2018-08-31T03:38:38.995Z,1017.72
2018-08-31T03:39:39.029Z,1017.73
2018-08-31T03:40:39.056Z,1017.72
2018-08-31T03:41:39.079Z,1017.73
2018-08-31T03:42:39.108Z,1017.70
2018-08-31T03:43:39.140Z,1017.73
2018-08-31T03:44:39.172Z,1017.78
2018-08-31T03:45:39.191Z,1017.81
2018-08-31T03:46:39.217Z,1017.78
2018-08-31T03:47:39.248Z,1017.80
2018-08-31T03:48:39.278Z,1017.78
2018-08-31T03:49:39.307Z,1017.74
2018-08-31T03:50:39.335Z,1017.77
2018-08-31T03:51:39.357Z,1017.77
2018-08-31T03:52:39.390Z,1017.79
2018-08-31T03:53:39.423Z,1017.77
2018-08-31T03:54:39.444Z,1017.81
2018-08-31T03:55:39.469Z,1017.83
2018-08-31T03:56:39.500Z,1017.83
2018-08-31T03:57:39.524Z,1017.81
2018-08-31T03:58:39.558Z,1017.83
2018-08-31T03:59:39.587Z,1017.80
2018-08-31T04:00:39.609Z,1017.82
2018-08-31T04:01:39.644Z,1017.83
2018-08-31T04:02:39.664Z,1017.77
2018-08-31T04:03:39.711Z,1017.80
2018-08-31T04:04:39.725Z,1017.82
2018-08-31T04:05:39.754Z,1017.79
2018-08-31T04:06:39.787Z,1017.83
2018-08-31T04:07:39.808Z,1017.85
2018-08-31T04:08:39.844Z,1017.81
2018-08-31T04:09:39.869Z,1017.84
2018-08-31T04:10:39.893Z,1017.78
2018-08-31T04:11:39.935Z,1017.79
2018-08-31T04:12:39.955Z,1017.78
2018-08-31T04:13:39.981Z,1017.76
2018-08-31T04:14:40.006Z,1017.75
2018-08-31T04:15:40.032Z,1017.77
2018-08-31T04:16:40.066Z,1017.76
2018-08-31T04:17:40.095Z,1017.75
2018-08-31T04:18:40.117Z,1017.77
2018-08-31T04:19:40.152Z,1017.79
2018-08-31T04:20:40.165Z,1017.78
2018-08-31T04:21:40.207Z,1017.79
2018-08-31T04:22:40.234Z,1017.80
2018-08-31T04:23:40.254Z,1017.76
2018-08-31T04:24:40.287Z,1017.76
2018-08-31T04:25:40.315Z,1017.77
2018-08-31T04:26:40.341Z,1017.76
2018-08-31T04:27:40.374Z,1017.78
2018-08-31T04:28:40.399Z,1017.77
2018-08-31T04:29:40.427Z,1017.78
2018-08-31T04:30:40.456Z,1017.77
2018-08-31T04:31:40.481Z,1017.80
2018-08-31T04:32:40.510Z,1017.73
2018-08-31T04:33:40.540Z,1017.74
2018-08-31T04:34:40.581Z,1017.77
2018-08-31T04:35:40.607Z,1017.77
2018-08-31T04:36:40.632Z,1017.80
2018-08-31T04:37:40.651Z,1017.78
2018-08-31T04:38:40.674Z,1017.74
2018-08-31T04:39:40.712Z,1017.75
2018-08-31T04:41:40.762Z,1017.79
2018-08-31T04:42:40.808Z,1017.79
2018-08-31T04:43:40.827Z,1017.79
2018-08-31T04:44:40.849Z,1017.78
2018-08-31T04:45:40.876Z,1017.80
2018-08-31T04:46:40.905Z,1017.81
2018-08-31T04:47:40.934Z,1017.82
2018-08-31T04:48:40.975Z,1017.84
2018-08-31T04:49:41.003Z,1017.82
2018-08-31T04:50:41.017Z,1017.79
2018-08-31T04:51:41.055Z,1017.81
2018-08-31T04:52:41.076Z,1017.83
2018-08-31T04:53:41.106Z,1017.81
2018-08-31T04:54:41.130Z,1017.84
2018-08-31T04:55:41.159Z,1017.82
2018-08-31T04:56:41.187Z,1017.82
2018-08-31T04:57:41.221Z,1017.83
2018-08-31T04:58:41.281Z,1017.85
2018-08-31T04:59:41.270Z,1017.81
2018-08-31T05:00:41.303Z,1017.81
2018-08-31T05:01:41.335Z,1017.83
2018-08-31T05:02:41.357Z,1017.78
2018-08-31T05:03:41.382Z,1017.79
2018-08-31T05:04:41.414Z,1017.74
2018-08-31T05:05:41.446Z,1017.75
2018-08-31T05:06:41.469Z,1017.75
2018-08-31T05:07:41.495Z,1017.76
2018-08-31T05:08:41.524Z,1017.78
2018-08-31T05:09:41.553Z,1017.76
2018-08-31T05:10:41.585Z,1017.74
2018-08-31T05:11:41.607Z,1017.78
2018-08-31T05:12:41.640Z,1017.75
2018-08-31T05:13:41.682Z,1017.84
2018-08-31T05:14:41.707Z,1017.83
2018-08-31T05:15:41.723Z,1017.81
2018-08-31T05:16:41.749Z,1017.82
2018-08-31T05:17:41.777Z,1017.86
2018-08-31T05:18:41.807Z,1017.84
2018-08-31T05:19:41.826Z,1017.88
2018-08-31T05:20:41.859Z,1017.81
2018-08-31T05:21:41.889Z,1017.84
2018-08-31T05:22:41.947Z,1017.86
2018-08-31T05:24:41.971Z,1017.88
2018-08-31T05:25:42.005Z,1017.87
2018-08-31T05:26:42.032Z,1017.88
2018-08-31T05:27:42.059Z,1017.89
2018-08-31T05:28:42.095Z,1017.92
2018-08-31T05:29:42.114Z,1017.91
2018-08-31T05:30:42.161Z,1017.92
2018-08-31T05:31:42.171Z,1017.92
2018-08-31T05:32:42.200Z,1017.91
2018-08-31T05:33:42.229Z,1017.92
2018-08-31T05:34:42.259Z,1017.90
2018-08-31T05:35:42.295Z,1017.93
2018-08-31T05:36:42.314Z,1017.92
2018-08-31T05:37:42.343Z,1017.93
2018-08-31T05:38:42.369Z,1017.95
2018-08-31T05:39:42.398Z,1017.94
2018-08-31T05:40:42.429Z,1017.98
2018-08-31T05:41:42.458Z,1017.98
2018-08-31T05:42:42.486Z,1017.97
2018-08-31T05:43:42.511Z,1017.98
2018-08-31T05:44:42.540Z,1018.02
2018-08-31T05:45:42.569Z,1018.02
2018-08-31T05:46:42.597Z,1018.01
2018-08-31T05:47:42.623Z,1018.02
2018-08-31T05:48:42.652Z,1018.01
2018-08-31T05:49:42.681Z,1018.01
2018-08-31T05:50:42.709Z,1018.05
2018-08-31T05:51:42.739Z,1018.03
2018-08-31T05:52:42.771Z,1018.04
2018-08-31T05:53:42.901Z,1018.07
2018-08-31T05:54:42.828Z,1018.08
2018-08-31T05:55:42.850Z,1018.05
2018-08-31T05:56:42.879Z,1018.07
2018-08-31T05:57:42.914Z,1018.08
2018-08-31T05:58:42.941Z,1018.07
2018-08-31T05:59:42.959Z,1018.10
2018-08-31T06:00:42.994Z,1018.12
2018-08-31T06:01:43.020Z,1018.15
2018-08-31T06:02:43.045Z,1018.16
2018-08-31T06:03:43.079Z,1018.19
2018-08-31T06:05:43.138Z,1018.20
2018-08-31T06:06:43.163Z,1018.21
2018-08-31T06:07:43.193Z,1018.20
2018-08-31T06:08:43.224Z,1018.23
2018-08-31T06:09:43.250Z,1018.25
2018-08-31T06:10:43.278Z,1018.23
2018-08-31T06:11:43.357Z,1018.27
2018-08-31T06:12:43.338Z,1018.30
2018-08-31T06:13:43.357Z,1018.30
2018-08-31T06:14:43.388Z,1018.31
2018-08-31T06:15:43.421Z,1018.30
2018-08-31T06:16:43.452Z,1018.32
2018-08-31T06:17:43.479Z,1018.31
2018-08-31T06:18:43.504Z,1018.31
2018-08-31T06:19:43.540Z,1018.28
2018-08-31T06:20:43.564Z,1018.32
2018-08-31T06:21:43.597Z,1018.28
2018-08-31T06:22:43.622Z,1018.30
2018-08-31T06:23:43.651Z,1018.31
2018-08-31T06:24:43.679Z,1018.32
2018-08-31T06:25:43.712Z,1018.35
2018-08-31T06:26:43.725Z,1018.38
2018-08-31T06:27:43.766Z,1018.39
2018-08-31T06:28:43.794Z,1018.41
2018-08-31T06:29:43.815Z,1018.39
2018-08-31T06:30:43.850Z,1018.42
2018-08-31T06:31:43.879Z,1018.45
2018-08-31T06:32:43.952Z,1018.45
2018-08-31T06:33:43.994Z,1018.45
2018-08-31T06:34:43.962Z,1018.44
2018-08-31T06:35:43.995Z,1018.46
2018-08-31T06:36:44.074Z,1018.46
2018-08-31T06:37:44.074Z,1018.44
2018-08-31T06:38:44.086Z,1018.48
2018-08-31T06:39:44.117Z,1018.41
2018-08-31T06:40:44.190Z,1018.43
2018-08-31T06:41:44.168Z,1018.47
2018-08-31T06:42:44.197Z,1018.48
2018-08-31T06:43:44.225Z,1018.50
2018-08-31T06:44:44.255Z,1018.53
2018-08-31T06:45:44.284Z,1018.54
2018-08-31T06:46:44.320Z,1018.48
2018-08-31T06:47:44.343Z,1018.54
2018-08-31T06:48:44.372Z,1018.55
2018-08-31T06:49:44.412Z,1018.52
2018-08-31T06:50:44.429Z,1018.56
2018-08-31T06:51:44.452Z,1018.53
2018-08-31T06:52:44.491Z,1018.55
2018-08-31T06:53:44.520Z,1018.52
2018-08-31T06:54:44.549Z,1018.55
2018-08-31T06:55:44.577Z,1018.58
2018-08-31T06:56:44.597Z,1018.58
2018-08-31T06:57:44.634Z,1018.57
2018-08-31T06:58:44.663Z,1018.55
2018-08-31T06:59:44.689Z,1018.59
2018-08-31T07:00:44.727Z,1018.60
2018-08-31T07:01:44.753Z,1018.60
2018-08-31T07:02:44.775Z,1018.61
2018-08-31T07:03:44.820Z,1018.60
2018-08-31T07:04:44.836Z,1018.62
2018-08-31T07:05:44.876Z,1018.63
2018-08-31T07:06:44.895Z,1018.60
2018-08-31T07:07:44.924Z,1018.57
2018-08-31T07:08:44.963Z,1018.58
2018-08-31T07:09:44.982Z,1018.57
2018-08-31T07:10:45.007Z,1018.59
2018-08-31T07:11:45.037Z,1018.58
2018-08-31T07:12:45.065Z,1018.58
2018-08-31T07:13:45.098Z,1018.60
2018-08-31T07:14:45.125Z,1018.61
2018-08-31T07:15:45.155Z,1018.66
2018-08-31T07:16:45.186Z,1018.62
2018-08-31T07:17:45.215Z,1018.64
2018-08-31T07:18:45.403Z,1018.66
2018-08-31T07:19:45.310Z,1018.64
2018-08-31T07:20:45.304Z,1018.67
2018-08-31T07:21:45.330Z,1018.68
2018-08-31T07:22:45.359Z,1018.66
2018-08-31T07:23:45.391Z,1018.70
2018-08-31T07:24:45.417Z,1018.71
2018-08-31T07:25:45.452Z,1018.69
2018-08-31T07:26:45.535Z,1018.67
2018-08-31T07:27:45.505Z,1018.68
2018-08-31T07:28:45.528Z,1018.68
2018-08-31T07:29:45.563Z,1018.69
2018-08-31T07:30:45.598Z,1018.70
2018-08-31T07:31:45.630Z,1018.70
2018-08-31T07:32:45.653Z,1018.67
2018-08-31T07:33:45.686Z,1018.69
2018-08-31T07:34:45.712Z,1018.68
2018-08-31T07:35:45.795Z,1018.68
2018-08-31T07:36:45.766Z,1018.72
2018-08-31T07:37:45.799Z,1018.72
2018-08-31T07:38:45.830Z,1018.73
2018-08-31T07:39:45.860Z,1018.74
2018-08-31T07:40:45.888Z,1018.73
2018-08-31T07:41:45.917Z,1018.74
2018-08-31T07:42:45.949Z,1018.76
2018-08-31T07:43:45.981Z,1018.72
2018-08-31T07:44:46.008Z,1018.73
2018-08-31T07:45:46.033Z,1018.73
2018-08-31T07:46:46.065Z,1018.77
2018-08-31T07:47:46.116Z,1018.77
2018-08-31T07:48:46.126Z,1018.78
2018-08-31T07:49:46.155Z,1018.78
2018-08-31T07:50:46.184Z,1018.77
2018-08-31T07:51:46.212Z,1018.78
2018-08-31T07:52:46.252Z,1018.81
2018-08-31T07:53:46.274Z,1018.78
2018-08-31T07:54:46.303Z,1018.79
2018-08-31T07:55:46.334Z,1018.84
2018-08-31T07:56:46.364Z,1018.81
2018-08-31T07:57:46.399Z,1018.83
2018-08-31T07:58:46.421Z,1018.86
2018-08-31T07:59:46.447Z,1018.85
2018-08-31T08:00:46.483Z,1018.85
2018-08-31T08:01:46.530Z,1018.90
2018-08-31T08:02:46.540Z,1018.90
2018-08-31T08:03:46.569Z,1018.88
2018-08-31T08:04:46.603Z,1018.88
2018-08-31T08:05:46.624Z,1018.91
2018-08-31T08:06:46.658Z,1018.93
2018-08-31T08:07:46.686Z,1018.89
2018-08-31T08:08:46.718Z,1018.93
2018-08-31T08:09:46.747Z,1018.95
2018-08-31T08:10:46.779Z,1018.94
2018-08-31T08:11:46.825Z,1018.93
2018-08-31T08:12:46.843Z,1018.95
2018-08-31T08:13:46.886Z,1018.94
2018-08-31T08:14:46.950Z,1018.95
2018-08-31T08:15:46.931Z,1018.96
2018-08-31T08:16:46.963Z,1018.95
2018-08-31T08:17:46.995Z,1018.97
2018-08-31T08:18:47.024Z,1018.99
2018-08-31T08:19:47.053Z,1018.97
2018-08-31T08:20:47.084Z,1018.98
2018-08-31T08:21:47.116Z,1018.97
2018-08-31T08:22:47.144Z,1018.99
2018-08-31T08:23:47.170Z,1019.00
2018-08-31T08:24:47.209Z,1018.98
2018-08-31T08:25:47.240Z,1019.00
2018-08-31T08:26:47.268Z,1019.04
2018-08-31T08:27:47.306Z,1019.00
2018-08-31T08:28:47.332Z,1019.02
2018-08-31T08:29:47.361Z,1019.00
2018-08-31T08:30:47.390Z,1019.01
2018-08-31T08:31:47.423Z,1019.02
2018-08-31T08:32:47.453Z,1019.06
2018-08-31T08:33:47.482Z,1019.05
2018-08-31T08:34:47.520Z,1019.04
2018-08-31T08:35:47.600Z,1019.05
2018-08-31T08:36:47.580Z,1019.06
2018-08-31T08:37:47.614Z,1019.09
2018-08-31T08:38:47.639Z,1019.07
2018-08-31T08:39:47.663Z,1019.03
2018-08-31T08:40:47.703Z,1019.07
2018-08-31T08:41:47.735Z,1019.07
2018-08-31T08:42:47.766Z,1019.04
2018-08-31T08:43:47.795Z,1019.04
2018-08-31T08:44:47.828Z,1019.02
2018-08-31T08:45:47.870Z,1019.03
2018-08-31T08:46:47.894Z,1019.03
2018-08-31T08:47:47.926Z,1019.02
2018-08-31T08:48:48.285Z,1019.00
2018-08-31T08:49:48.003Z,1019.04
2018-08-31T08:50:48.019Z,1019.04
2018-08-31T08:51:48.059Z,1019.03
2018-08-31T08:52:48.088Z,1019.02
2018-08-31T08:53:48.117Z,1019.02
2018-08-31T08:54:48.156Z,1019.02
2018-08-31T08:55:48.183Z,1018.99
2018-08-31T08:56:48.216Z,1019.03
2018-08-31T08:57:48.248Z,1019.00
2018-08-31T08:58:48.284Z,1019.02
2018-08-31T08:59:48.315Z,1019.01
2018-08-31T09:00:48.375Z,1019.02
2018-08-31T09:01:48.376Z,1019.02
2018-08-31T09:02:48.411Z,1019.05
2018-08-31T09:03:48.447Z,1019.01
2018-08-31T09:04:48.475Z,1019.03
2018-08-31T09:05:48.511Z,1019.04
2018-08-31T09:06:48.552Z,1019.03
2018-08-31T09:07:48.577Z,1019.02
2018-08-31T09:08:48.609Z,1018.99
2018-08-31T09:09:48.674Z,1019.02
2018-08-31T09:10:48.680Z,1019.04
2018-08-31T09:11:48.727Z,1019.02
2018-08-31T09:12:48.748Z,1019.01
2018-08-31T09:13:48.783Z,1018.98
2018-08-31T09:14:48.811Z,1018.97
2018-08-31T09:15:48.844Z,1019.03
2018-08-31T09:16:48.880Z,1018.99
2018-08-31T09:17:48.909Z,1018.97
2018-08-31T09:18:48.941Z,1018.99
2018-08-31T09:19:48.974Z,1018.97
2018-08-31T09:20:49.008Z,1018.97
2018-08-31T09:21:49.043Z,1018.98
2018-08-31T09:22:49.073Z,1018.96
2018-08-31T09:23:49.107Z,1018.94
2018-08-31T09:24:49.145Z,1018.95
2018-08-31T09:25:49.172Z,1018.95
2018-08-31T09:26:49.214Z,1018.95
2018-08-31T09:27:49.261Z,1018.93
2018-08-31T09:28:49.286Z,1018.94
2018-08-31T09:29:49.308Z,1018.94
2018-08-31T09:30:49.346Z,1018.96
2018-08-31T09:31:49.376Z,1018.94
2018-08-31T09:32:49.417Z,1018.95
2018-08-31T09:33:49.449Z,1018.94
2018-08-31T09:34:49.480Z,1018.91
2018-08-31T09:35:49.516Z,1018.91
2018-08-31T09:36:49.555Z,1018.89
2018-08-31T09:37:49.589Z,1018.89
2018-08-31T09:38:49.618Z,1018.89
2018-08-31T09:39:49.653Z,1018.90
2018-08-31T09:40:49.686Z,1018.88
2018-08-31T09:41:49.719Z,1018.86
2018-08-31T09:42:49.760Z,1018.86
2018-08-31T09:43:49.816Z,1018.86
2018-08-31T09:44:49.821Z,1018.85
2018-08-31T09:45:49.856Z,1018.88
2018-08-31T09:46:49.895Z,1018.83
2018-08-31T09:47:49.927Z,1018.85
2018-08-31T09:48:49.959Z,1018.84
2018-08-31T09:49:50.082Z,1018.82
2018-08-31T09:50:50.032Z,1018.86
2018-08-31T09:51:50.064Z,1018.85
2018-08-31T09:52:50.096Z,1018.85
2018-08-31T09:53:50.131Z,1018.83
2018-08-31T09:54:50.167Z,1018.82
2018-08-31T09:55:50.198Z,1018.78
2018-08-31T09:56:50.240Z,1018.81
2018-08-31T09:57:50.268Z,1018.77
2018-08-31T09:58:50.305Z,1018.78
2018-08-31T09:59:50.335Z,1018.78
2018-08-31T10:00:50.370Z,1018.75
2018-08-31T10:01:50.406Z,1018.78
2018-08-31T10:02:50.441Z,1018.74
2018-08-31T10:03:50.474Z,1018.75
2018-08-31T10:04:50.503Z,1018.78
2018-08-31T10:05:50.555Z,1018.73
2018-08-31T10:06:50.573Z,1018.70
2018-08-31T10:07:50.609Z,1018.72
2018-08-31T10:08:50.651Z,1018.67
2018-08-31T10:09:50.680Z,1018.68
2018-08-31T10:10:50.774Z,1018.69
2018-08-31T10:11:50.746Z,1018.70
2018-08-31T10:12:50.795Z,1018.67
2018-08-31T10:13:50.817Z,1018.67
2018-08-31T10:14:50.852Z,1018.67
2018-08-31T10:15:50.884Z,1018.66
2018-08-31T10:16:50.926Z,1018.67
2018-08-31T10:17:50.958Z,1018.67
2018-08-31T10:18:51.144Z,1018.68
2018-08-31T10:19:51.022Z,1018.68
2018-08-31T10:20:51.058Z,1018.68
2018-08-31T10:21:51.148Z,1018.66
2018-08-31T10:22:51.138Z,1018.62
2018-08-31T10:23:51.167Z,1018.64
2018-08-31T10:24:51.192Z,1018.64
2018-08-31T10:25:51.240Z,1018.64
2018-08-31T10:26:51.264Z,1018.63
2018-08-31T10:27:51.292Z,1018.67
2018-08-31T10:28:51.337Z,1018.65
2018-08-31T10:29:51.373Z,1018.62
2018-08-31T10:30:51.401Z,1018.63
2018-08-31T10:31:51.438Z,1018.67
2018-08-31T10:32:51.480Z,1018.63
2018-08-31T10:33:51.505Z,1018.63
2018-08-31T10:34:51.544Z,1018.66
2018-08-31T10:35:51.581Z,1018.66
2018-08-31T10:36:51.612Z,1018.62
2018-08-31T10:37:51.650Z,1018.61
2018-08-31T10:38:51.685Z,1018.66
2018-08-31T10:39:51.724Z,1018.59
2018-08-31T10:40:51.755Z,1018.58
2018-08-31T10:41:51.792Z,1018.57
2018-08-31T10:42:51.827Z,1018.58
2018-08-31T10:43:51.858Z,1018.56
2018-08-31T10:44:51.896Z,1018.57
2018-08-31T10:45:51.931Z,1018.58
2018-08-31T10:46:51.971Z,1018.55
2018-08-31T10:47:51.998Z,1018.56
2018-08-31T10:48:52.050Z,1018.59
2018-08-31T10:49:52.081Z,1018.62
2018-08-31T10:50:52.115Z,1018.62
2018-08-31T10:51:52.144Z,1018.62
2018-08-31T10:52:52.180Z,1018.62
2018-08-31T10:53:52.215Z,1018.62
2018-08-31T10:54:52.250Z,1018.61
2018-08-31T10:55:52.279Z,1018.59
2018-08-31T10:56:52.324Z,1018.55
2018-08-31T10:57:52.359Z,1018.56
2018-08-31T10:58:52.388Z,1018.54
2018-08-31T10:59:52.429Z,1018.48
2018-08-31T11:00:52.466Z,1018.49
2018-08-31T11:01:52.502Z,1018.49
2018-08-31T11:02:52.545Z,1018.49
2018-08-31T11:03:52.579Z,1018.51
2018-08-31T11:04:52.612Z,1018.47
2018-08-31T11:05:52.650Z,1018.51
2018-08-31T11:06:52.681Z,1018.48
2018-08-31T11:07:52.716Z,1018.50
2018-08-31T11:08:52.755Z,1018.51
2018-08-31T11:09:52.792Z,1018.46
2018-08-31T11:10:52.825Z,1018.50
2018-08-31T11:11:52.868Z,1018.49
2018-08-31T11:12:52.907Z,1018.49
2018-08-31T11:13:52.945Z,1018.47
2018-08-31T11:14:52.967Z,1018.49
2018-08-31T11:15:53.004Z,1018.46
2018-08-31T11:16:53.039Z,1018.49
2018-08-31T11:17:53.073Z,1018.50
2018-08-31T11:18:53.212Z,1018.47
2018-08-31T11:19:53.144Z,1018.48
2018-08-31T11:20:53.179Z,1018.54
2018-08-31T11:21:53.230Z,1018.51
2018-08-31T11:22:53.250Z,1018.50
2018-08-31T11:23:53.285Z,1018.49
2018-08-31T11:24:53.327Z,1018.49
2018-08-31T11:25:53.359Z,1018.45
2018-08-31T11:26:53.381Z,1018.46
2018-08-31T11:27:53.455Z,1018.44
2018-08-31T11:28:53.463Z,1018.43
2018-08-31T11:29:53.500Z,1018.41
2018-08-31T11:30:53.522Z,1018.43
2018-08-31T11:31:53.574Z,1018.43
2018-08-31T11:32:53.602Z,1018.42
2018-08-31T11:33:53.644Z,1018.43
2018-08-31T11:34:53.674Z,1018.39
2018-08-31T11:35:53.719Z,1018.42
2018-08-31T11:36:53.754Z,1018.44
2018-08-31T11:37:53.779Z,1018.44
2018-08-31T11:38:53.821Z,1018.45
2018-08-31T11:39:53.855Z,1018.43
2018-08-31T11:40:53.890Z,1018.42
2018-08-31T11:41:53.922Z,1018.34
2018-08-31T11:42:53.973Z,1018.40
2018-08-31T11:43:53.999Z,1018.35
2018-08-31T11:44:54.037Z,1018.39
2018-08-31T11:45:54.116Z,1018.31
2018-08-31T11:46:54.115Z,1018.32
2018-08-31T11:47:54.154Z,1018.34
2018-08-31T11:48:54.195Z,1018.34
2018-08-31T11:49:54.234Z,1018.28
2018-08-31T11:50:54.271Z,1018.23
2018-08-31T11:51:54.320Z,1018.24
2018-08-31T11:52:54.345Z,1018.22
2018-08-31T11:53:54.383Z,1018.25
2018-08-31T11:54:54.421Z,1018.24
2018-08-31T11:55:54.453Z,1018.24
2018-08-31T11:56:54.504Z,1018.24
2018-08-31T11:57:54.533Z,1018.21
2018-08-31T11:58:54.574Z,1018.26
2018-08-31T11:59:54.608Z,1018.26
2018-08-31T12:00:54.669Z,1018.28
2018-08-31T12:01:54.736Z,1018.25
2018-08-31T12:02:54.724Z,1018.26
2018-08-31T12:03:54.763Z,1018.25
2018-08-31T12:04:54.803Z,1018.22
2018-08-31T12:05:54.845Z,1018.20
2018-08-31T12:06:54.882Z,1018.17
2018-08-31T12:07:54.978Z,1018.20
2018-08-31T12:08:54.954Z,1018.19